Time;durP1;ratioP1;P1;durP2;ratioP2;P2;SDS_P1;SDS_P2;PMS_P1;PMS_P2;Temp;Humidity;BMP_temperature;BMP_pressure;BME280_temperature;BME280_humidity;BME280_pressure;Samples;Min_cycle;Max_cycle;Signal;HPM_P1;HPM_P2
2023/06/13 00:00:44;;;;;;;8.63;2.60;;;;;;;;;;5044230;28;20809;-50
2023/06/13 00:03:11;;;;;;;4.13;2.28;;;;;;;;;;5044464;28;20057;-50
2023/06/13 00:05:37;;;;;;;5.55;1.90;;;;;;;;;;5008982;28;20021;-52
2023/06/13 00:08:02;;;;;;;5.53;2.13;;;;;;;;;;5044467;28;20158;-51
2023/06/13 00:10:28;;;;;;;7.18;2.63;;;;;;;;;;5044176;28;20028;-53
2023/06/13 00:12:53;;;;;;;3.78;1.83;;;;;;;;;;5043577;28;20028;-52
2023/06/13 00:15:18;;;;;;;3.13;1.80;;;;;;;;;;5008505;28;20112;-51
2023/06/13 00:17:45;;;;;;;7.50;2.15;;;;;;;;;;5044601;28;20652;-54
2023/06/13 00:20:11;;;;;;;2.85;2.30;;;;;;;;;;5044329;28;20013;-54
2023/06/13 00:22:36;;;;;;;3.83;2.13;;;;;;;;;;5043206;28;20128;-53
2023/06/13 00:25:02;;;;;;;6.05;1.92;;;;;;;;;;5043972;28;20397;-53
2023/06/13 00:27:27;;;;;;;3.15;1.92;;;;;;;;;;5007147;28;20423;-51
2023/06/13 00:29:52;;;;;;;3.20;2.00;;;;;;;;;;5043736;28;20032;-54
2023/06/13 00:32:18;;;;;;;7.85;2.55;;;;;;;;;;5043538;28;20104;-55
2023/06/13 00:34:43;;;;;;;3.28;2.05;;;;;;;;;;5043546;28;20040;-54
2023/06/13 00:37:13;;;;;;;3.60;2.45;;;;;;;;;;5043614;28;20083;-52
2023/06/13 00:39:40;;;;;;;4.43;2.20;;;;;;;;;;5043525;28;20025;-49
2023/06/13 00:42:06;;;;;;;4.97;2.10;;;;;;;;;;5043787;28;20473;-50
2023/06/13 00:44:32;;;;;;;8.68;2.50;;;;;;;;;;5043466;28;20021;-55
2023/06/13 00:46:57;;;;;;;9.32;2.50;;;;;;;;;;5043786;28;20336;-47
2023/06/13 00:49:22;;;;;;;4.57;2.13;;;;;;;;;;5043671;28;20059;-55
2023/06/13 00:51:48;;;;;;;4.35;2.40;;;;;;;;;;5043732;28;20529;-54
2023/06/13 00:54:13;;;;;;;3.70;2.30;;;;;;;;;;5042489;28;20465;-54
2023/06/13 00:56:40;;;;;;;4.00;1.75;;;;;;;;;;5043419;28;20017;-54
2023/06/13 00:59:07;;;;;;;4.22;2.05;;;;;;;;;;5043829;28;20017;-54
2023/06/13 01:01:32;;;;;;;6.32;2.42;;;;;;;;;;5007747;28;20520;-54
2023/06/13 01:03:59;;;;;;;3.97;1.92;;;;;;;;;;5043283;28;20055;-49
2023/06/13 01:06:25;;;;;;;3.58;2.05;;;;;;;;;;5042549;28;20021;-52
2023/06/13 01:08:58;;;;;;;3.95;2.25;;;;;;;;;;5023711;28;20029;-56
2023/06/13 01:11:41;;;;;;;4.07;2.05;;;;;;;;;;5043378;28;20020;-51
2023/06/13 01:14:15;;;;;;;4.10;2.22;;;;;;;;;;5043031;28;20025;-53
2023/06/13 01:16:40;;;;;;;7.05;2.67;;;;;;;;;;5042729;28;20524;-50
2023/06/13 01:19:11;;;;;;;3.85;2.22;;;;;;;;;;5042561;28;20087;-54
2023/06/13 01:21:37;;;;;;;3.13;2.17;;;;;;;;;;5042675;28;20021;-52
2023/06/13 01:24:19;;;;;;;3.97;2.42;;;;;;;;;;5042354;28;20380;-53
2023/06/13 01:26:47;;;;;;;2.67;1.85;;;;;;;;;;5041992;28;20024;-52
2023/06/13 01:29:13;;;;;;;5.32;2.40;;;;;;;;;;5042134;28;20099;-52
2023/06/13 01:31:40;;;;;;;6.95;2.10;;;;;;;;;;5043000;28;20040;-54
2023/06/13 01:34:05;;;;;;;2.80;2.05;;;;;;;;;;5042424;28;20283;-52
2023/06/13 01:36:31;;;;;;;3.90;2.15;;;;;;;;;;5042113;28;20392;-50
2023/06/13 01:38:56;;;;;;;5.10;2.08;;;;;;;;;;5042610;28;20025;-48
2023/06/13 01:41:21;;;;;;;6.70;2.30;;;;;;;;;;5042446;28;20048;-54
2023/06/13 01:43:47;;;;;;;4.88;2.10;;;;;;;;;;5042572;28;20464;-53
2023/06/13 01:46:38;;;;;;;5.68;2.22;;;;;;;;;;5042535;28;20020;-54
2023/06/13 01:49:20;;;;;;;2.83;1.90;;;;;;;;;;4980060;28;20030;-51
2023/06/13 01:51:59;;;;;;;5.38;3.38;;;;;;;;;;4979948;28;20035;-51
2023/06/13 01:54:26;;;;;;;4.93;2.25;;;;;;;;;;4980040;28;20046;-54
2023/06/13 01:56:55;;;;;;;5.82;1.88;;;;;;;;;;4980113;28;20034;-50
2023/06/13 01:59:23;;;;;;;3.47;2.03;;;;;;;;;;4979868;28;20034;-52
2023/06/13 02:01:49;;;;;;;2.90;2.08;;;;;;;;;;4980143;28;20053;-53
2023/06/13 02:04:14;;;;;;;6.07;2.28;;;;;;;;;;4980194;28;20026;-52
2023/06/13 02:06:40;;;;;;;2.47;2.22;;;;;;;;;;4979727;28;20039;-53
2023/06/13 02:09:05;;;;;;;4.03;1.95;;;;;;;;;;4980062;28;20084;-54
2023/06/13 02:11:31;;;;;;;5.47;2.20;;;;;;;;;;4979443;28;20062;-50
2023/06/13 02:13:56;;;;;;;4.82;2.25;;;;;;;;;;4979793;28;20463;-51
2023/06/13 02:16:25;;;;;;;6.68;2.20;;;;;;;;;;4979994;28;20058;-51
2023/06/13 02:18:50;;;;;;;7.30;2.50;;;;;;;;;;4980007;28;20033;-53
2023/06/13 02:21:15;;;;;;;3.83;2.38;;;;;;;;;;4979889;28;20051;-53
2023/06/13 02:23:41;;;;;;;3.45;2.10;;;;;;;;;;4979874;28;20129;-53
2023/06/13 02:26:07;;;;;;;4.43;2.10;;;;;;;;;;5016198;28;20037;-49
2023/06/13 02:28:33;;;;;;;5.32;2.88;;;;;;;;;;5041390;28;20213;-51
2023/06/13 02:30:58;;;;;;;9.07;2.45;;;;;;;;;;5042232;28;20112;-53
2023/06/13 02:33:24;;;;;;;3.40;2.13;;;;;;;;;;5023984;28;20033;-55
2023/06/13 02:35:50;;;;;;;3.40;2.38;;;;;;;;;;5042542;28;20025;-53
2023/06/13 02:38:15;;;;;;;3.33;2.25;;;;;;;;;;5041568;28;20510;-50
2023/06/13 02:40:40;;;;;;;3.95;2.38;;;;;;;;;;5041393;28;20013;-51
2023/06/13 02:43:06;;;;;;;3.50;2.50;;;;;;;;;;5042101;28;20064;-52
2023/06/13 02:45:31;;;;;;;3.92;2.03;;;;;;;;;;5041570;28;20120;-52
2023/06/13 02:47:57;;;;;;;3.92;2.53;;;;;;;;;;5041839;28;20016;-48
2023/06/13 02:50:22;;;;;;;3.10;2.20;;;;;;;;;;5041429;28;20052;-48
2023/06/13 02:52:47;;;;;;;4.43;2.13;;;;;;;;;;5041790;28;20392;-52
2023/06/13 02:55:13;;;;;;;4.30;2.03;;;;;;;;;;5041477;28;20379;-51
2023/06/13 02:57:38;;;;;;;2.25;1.90;;;;;;;;;;5006240;28;20037;-52
2023/06/13 03:00:07;;;;;;;2.83;1.98;;;;;;;;;;5042068;28;20025;-49
2023/06/13 03:02:32;;;;;;;3.47;2.27;;;;;;;;;;5023738;28;20111;-48
2023/06/13 03:04:57;;;;;;;4.72;2.22;;;;;;;;;;5006166;28;20093;-50
2023/06/13 03:07:23;;;;;;;2.75;1.77;;;;;;;;;;5041335;28;20036;-53
2023/06/13 03:09:49;;;;;;;5.00;2.28;;;;;;;;;;5041267;28;20025;-50
2023/06/13 03:12:14;;;;;;;3.92;2.00;;;;;;;;;;5041316;28;20024;-51
2023/06/13 03:14:39;;;;;;;5.25;2.22;;;;;;;;;;5041635;28;20040;-51
2023/06/13 03:17:06;;;;;;;2.35;1.77;;;;;;;;;;5042559;28;20084;-54
2023/06/13 03:19:31;;;;;;;5.43;2.50;;;;;;;;;;5045493;28;20047;-50
2023/06/13 03:21:57;;;;;;;5.38;2.33;;;;;;;;;;5045528;28;20467;-53
2023/06/13 03:24:22;;;;;;;2.67;1.90;;;;;;;;;;5045364;28;20029;-53
2023/06/13 03:26:47;;;;;;;7.63;2.40;;;;;;;;;;5008978;28;20120;-54
2023/06/13 03:29:13;;;;;;;10.52;2.90;;;;;;;;;;5045126;28;20052;-56
2023/06/13 03:31:38;;;;;;;3.15;2.28;;;;;;;;;;5045242;28;20606;-47
2023/06/13 03:34:04;;;;;;;4.97;2.67;;;;;;;;;;5044726;28;20032;-53
2023/06/13 03:36:30;;;;;;;3.78;1.95;;;;;;;;;;5044693;28;20056;-49
2023/06/13 03:38:55;;;;;;;6.82;2.35;;;;;;;;;;5044100;28;20056;-53
2023/06/13 03:41:20;;;;;;;3.72;2.20;;;;;;;;;;5044761;28;20032;-53
2023/06/13 03:43:45;;;;;;;7.13;2.38;;;;;;;;;;5008300;28;20057;-53
2023/06/13 03:46:11;;;;;;;3.67;2.20;;;;;;;;;;5044604;28;20025;-53
2023/06/13 03:48:36;;;;;;;5.97;2.80;;;;;;;;;;5044234;28;20037;-51
2023/06/13 03:51:01;;;;;;;3.43;2.27;;;;;;;;;;5044218;28;20024;-54
2023/06/13 03:53:27;;;;;;;5.63;2.40;;;;;;;;;;5008521;28;20317;-53
2023/06/13 03:55:52;;;;;;;5.88;2.70;;;;;;;;;;5044204;28;20519;-53
2023/06/13 03:58:18;;;;;;;2.38;1.92;;;;;;;;;;5043979;28;20013;-53
2023/06/13 04:00:44;;;;;;;3.78;2.42;;;;;;;;;;5044375;28;20024;-52
2023/06/13 04:03:10;;;;;;;4.45;2.15;;;;;;;;;;5044283;28;20115;-54
2023/06/13 04:05:35;;;;;;;3.55;2.13;;;;;;;;;;5044055;28;20028;-53
2023/06/13 04:08:01;;;;;;;3.28;2.00;;;;;;;;;;5044704;28;20412;-49
2023/06/13 04:10:26;;;;;;;7.65;3.25;;;;;;;;;;5026008;28;20021;-54
2023/06/13 04:12:52;;;;;;;5.97;2.55;;;;;;;;;;5044400;28;20021;-51
2023/06/13 04:15:17;;;;;;;3.95;1.70;;;;;;;;;;5044184;28;20045;-54
2023/06/13 04:17:42;;;;;;;3.70;2.00;;;;;;;;;;5043875;28;20017;-53
2023/06/13 04:20:09;;;;;;;2.60;1.90;;;;;;;;;;5044054;28;20028;-50
2023/06/13 04:22:35;;;;;;;4.72;2.10;;;;;;;;;;5043612;28;20029;-51
2023/06/13 04:25:00;;;;;;;4.70;2.00;;;;;;;;;;5026294;28;20036;-54
2023/06/13 04:27:29;;;;;;;4.00;2.80;;;;;;;;;;5043409;28;20028;-53
2023/06/13 04:29:55;;;;;;;3.45;2.42;;;;;;;;;;5043018;28;20032;-55
2023/06/13 04:32:23;;;;;;;8.13;2.03;;;;;;;;;;5043875;28;20368;-53
2023/06/13 04:34:52;;;;;;;2.65;2.03;;;;;;;;;;5043547;28;20040;-54
2023/06/13 04:37:25;;;;;;;2.65;1.90;;;;;;;;;;5043913;28;20451;-52
2023/06/13 04:39:51;;;;;;;6.10;2.00;;;;;;;;;;5025866;28;20653;-54
2023/06/13 04:42:24;;;;;;;2.83;2.00;;;;;;;;;;5043491;28;20020;-53
2023/06/13 04:44:58;;;;;;;5.72;1.70;;;;;;;;;;5043479;28;20032;-53
2023/06/13 04:47:24;;;;;;;4.13;1.80;;;;;;;;;;5043521;28;20488;-51
2023/06/13 04:49:58;;;;;;;5.03;1.88;;;;;;;;;;5042935;28;20031;-50
2023/06/13 04:52:27;;;;;;;4.20;1.60;;;;;;;;;;5043720;28;20025;-55
2023/06/13 04:54:54;;;;;;;4.95;1.58;;;;;;;;;;5043373;28;20048;-54
2023/06/13 04:57:19;;;;;;;3.15;2.28;;;;;;;;;;5043256;28;20464;-54
2023/06/13 04:59:45;;;;;;;3.58;1.95;;;;;;;;;;5043398;28;20100;-52
2023/06/13 05:02:10;;;;;;;4.93;1.67;;;;;;;;;;5043012;28;20036;-50
2023/06/13 05:04:37;;;;;;;7.47;2.25;;;;;;;;;;5043441;28;20330;-53
2023/06/13 05:07:04;;;;;;;4.57;1.95;;;;;;;;;;5043734;28;20496;-54
2023/06/13 05:09:30;;;;;;;3.30;2.22;;;;;;;;;;5043050;28;20039;-52
2023/06/13 05:11:55;;;;;;;5.90;2.00;;;;;;;;;;5007792;28;20053;-50
2023/06/13 05:14:21;;;;;;;6.65;1.83;;;;;;;;;;5042698;28;20110;-53
2023/06/13 05:16:47;;;;;;;4.55;2.05;;;;;;;;;;5043276;28;20037;-53
2023/06/13 05:19:12;;;;;;;3.80;1.80;;;;;;;;;;5042595;28;20226;-55
2023/06/13 05:21:38;;;;;;;5.38;1.98;;;;;;;;;;5042963;28;20040;-51
2023/06/13 05:24:03;;;;;;;2.17;1.70;;;;;;;;;;5042817;28;20554;-52
2023/06/13 05:26:28;;;;;;;8.70;1.83;;;;;;;;;;5042486;28;20466;-54
2023/06/13 05:28:54;;;;;;;2.42;1.50;;;;;;;;;;5042437;28;20049;-52
2023/06/13 05:31:19;;;;;;;4.38;1.75;;;;;;;;;;5042686;28;20605;-54
2023/06/13 05:33:45;;;;;;;5.97;1.67;;;;;;;;;;5042450;28;20055;-53
2023/06/13 05:36:11;;;;;;;3.00;1.20;;;;;;;;;;5040804;28;20127;-48
2023/06/13 05:38:36;;;;;;;1.85;1.65;;;;;;;;;;5030835;28;20445;-47
2023/06/13 05:41:02;;;;;;;2.57;1.80;;;;;;;;;;5021530;28;20021;-54
2023/06/13 05:43:27;;;;;;;2.95;1.55;;;;;;;;;;5040184;28;20806;-55
2023/06/13 05:45:52;;;;;;;4.03;1.38;;;;;;;;;;5041787;28;20035;-52
2023/06/13 05:48:18;;;;;;;2.45;1.40;;;;;;;;;;5042330;28;20009;-54
2023/06/13 05:50:43;;;;;;;1.48;1.30;;;;;;;;;;5042182;28;20488;-50
2023/06/13 05:53:09;;;;;;;5.85;1.63;;;;;;;;;;5036768;28;20022;-50
2023/06/13 05:55:34;;;;;;;1.92;1.40;;;;;;;;;;5036318;28;20128;-54
2023/06/13 05:58:00;;;;;;;1.60;1.30;;;;;;;;;;4985113;28;20077;-53
2023/06/13 06:00:25;;;;;;;3.95;1.40;;;;;;;;;;5038321;28;20435;-53
2023/06/13 06:02:50;;;;;;;1.95;1.40;;;;;;;;;;5035579;28;20724;-53
2023/06/13 06:05:19;;;;;;;3.83;1.20;;;;;;;;;;5037807;28;20470;-53
2023/06/13 06:07:44;;;;;;;8.55;1.38;;;;;;;;;;5017414;28;20048;-52
2023/06/13 06:10:10;;;;;;;2.83;1.50;;;;;;;;;;5041710;28;20484;-53
2023/06/13 06:12:35;;;;;;;2.25;1.40;;;;;;;;;;5037369;28;20037;-49
2023/06/13 06:15:01;;;;;;;3.92;1.25;;;;;;;;;;5036121;28;20028;-54
2023/06/13 06:17:26;;;;;;;4.28;1.20;;;;;;;;;;5033884;28;20033;-52
2023/06/13 06:19:52;;;;;;;3.15;1.60;;;;;;;;;;5037752;28;20052;-53
2023/06/13 06:22:17;;;;;;;1.37;1.20;;;;;;;;;;5037508;28;20410;-51
2023/06/13 06:24:42;;;;;;;2.43;1.50;;;;;;;;;;5003336;28;20736;-52
2023/06/13 06:27:08;;;;;;;3.42;1.55;;;;;;;;;;5039591;28;20262;-49
2023/06/13 06:29:33;;;;;;;3.30;1.57;;;;;;;;;;5039169;28;20166;-54
2023/06/13 06:31:58;;;;;;;4.18;1.58;;;;;;;;;;5008637;28;20816;-49
2023/06/13 06:34:23;;;;;;;4.63;1.40;;;;;;;;;;5023126;28;20048;-50
2023/06/13 06:36:49;;;;;;;1.93;1.00;;;;;;;;;;5034385;28;20271;-52
2023/06/13 06:39:15;;;;;;;2.93;1.33;;;;;;;;;;5034234;28;20777;-53
2023/06/13 06:41:41;;;;;;;2.58;1.60;;;;;;;;;;5033374;28;20258;-49
2023/06/13 06:44:07;;;;;;;2.13;1.20;;;;;;;;;;5037871;28;20112;-49
2023/06/13 06:46:32;;;;;;;6.25;1.95;;;;;;;;;;5035834;28;20116;-52
2023/06/13 06:48:57;;;;;;;1.23;1.05;;;;;;;;;;5013449;28;20078;-52
2023/06/13 06:51:23;;;;;;;5.40;1.37;;;;;;;;;;5029988;28;20025;-54
2023/06/13 06:53:50;;;;;;;6.05;1.30;;;;;;;;;;5043103;28;20270;-54
2023/06/13 06:56:15;;;;;;;2.30;1.30;;;;;;;;;;5041772;28;20060;-53
2023/06/13 06:58:41;;;;;;;1.50;1.27;;;;;;;;;;5021028;28;20494;-52
2023/06/13 07:01:06;;;;;;;1.25;1.00;;;;;;;;;;5040247;28;20467;-53
2023/06/13 07:03:32;;;;;;;3.15;1.60;;;;;;;;;;5043213;28;20041;-55
2023/06/13 07:05:57;;;;;;;2.65;1.20;;;;;;;;;;5042304;28;20021;-53
2023/06/13 07:08:22;;;;;;;4.80;1.37;;;;;;;;;;5042363;28;20056;-52
2023/06/13 07:10:48;;;;;;;4.90;1.48;;;;;;;;;;5042738;28;20297;-51
2023/06/13 07:13:13;;;;;;;3.97;1.67;;;;;;;;;;5042065;28;20052;-50
2023/06/13 07:15:38;;;;;;;5.40;1.57;;;;;;;;;;5036917;28;20395;-53
2023/06/13 07:18:04;;;;;;;3.77;1.30;;;;;;;;;;5035770;28;20170;-52
2023/06/13 07:20:30;;;;;;;2.63;1.50;;;;;;;;;;5037710;28;20250;-50
2023/06/13 07:22:55;;;;;;;1.70;1.20;;;;;;;;;;5037983;28;20028;-56
2023/06/13 07:25:20;;;;;;;1.60;1.20;;;;;;;;;;5038373;28;20017;-53
2023/06/13 07:27:45;;;;;;;4.45;1.38;;;;;;;;;;5034680;28;20504;-50
2023/06/13 07:30:11;;;;;;;189.98;18.45;;;;;;;;;;5037115;28;20067;-55
2023/06/13 07:32:36;;;;;;;8.32;1.98;;;;;;;;;;5036539;28;20449;-54
2023/06/13 07:35:02;;;;;;;2.70;1.03;;;;;;;;;;5038207;28;20101;-55
2023/06/13 07:37:28;;;;;;;2.13;1.20;;;;;;;;;;5037154;28;20818;-54
2023/06/13 07:39:53;;;;;;;1.98;1.23;;;;;;;;;;5032226;28;20025;-51
2023/06/13 07:42:18;;;;;;;1.80;1.27;;;;;;;;;;5001376;28;20037;-56
2023/06/13 07:44:44;;;;;;;2.73;1.50;;;;;;;;;;5039923;28;20254;-50
2023/06/13 07:47:10;;;;;;;6.93;1.60;;;;;;;;;;5035724;28;20616;-53
2023/06/13 07:49:35;;;;;;;1.85;1.60;;;;;;;;;;5043592;28;20353;-55
2023/06/13 07:52:00;;;;;;;1.50;1.25;;;;;;;;;;5037550;28;20155;-52
2023/06/13 07:54:26;;;;;;;1.67;1.40;;;;;;;;;;5041179;28;20037;-54
2023/06/13 07:56:52;;;;;;;2.00;1.27;;;;;;;;;;5033955;28;20025;-53
2023/06/13 07:59:17;;;;;;;2.28;1.27;;;;;;;;;;5033972;28;20388;-53
2023/06/13 08:01:42;;;;;;;2.50;1.40;;;;;;;;;;4997482;28;20128;-56
2023/06/13 08:04:08;;;;;;;2.50;1.70;;;;;;;;;;5034314;28;20052;-53
2023/06/13 08:06:33;;;;;;;6.37;1.50;;;;;;;;;;5037580;28;20270;-54
2023/06/13 08:08:58;;;;;;;1.17;1.00;;;;;;;;;;5036342;28;20729;-53
2023/06/13 08:11:24;;;;;;;2.03;1.30;;;;;;;;;;5039805;28;20023;-53
2023/06/13 08:13:49;;;;;;;2.15;1.52;;;;;;;;;;5037560;28;20355;-51
2023/06/13 08:16:15;;;;;;;4.07;1.33;;;;;;;;;;5037321;28;20036;-50
2023/06/13 08:18:40;;;;;;;3.35;1.48;;;;;;;;;;5036798;28;20724;-55
2023/06/13 08:21:05;;;;;;;3.30;1.35;;;;;;;;;;5021465;28;20044;-49
2023/06/13 08:23:31;;;;;;;1.20;1.02;;;;;;;;;;5037056;28;20107;-55
2023/06/13 08:25:56;;;;;;;1.85;1.38;;;;;;;;;;5038525;28;20036;-54
2023/06/13 08:28:22;;;;;;;1.42;1.33;;;;;;;;;;5026407;28;20591;-54
2023/06/13 08:30:49;;;;;;;7.75;1.95;;;;;;;;;;5038341;28;20029;-57
2023/06/13 08:33:14;;;;;;;3.95;1.30;;;;;;;;;;5040359;28;20511;-58
2023/06/13 08:35:40;;;;;;;7.30;1.67;;;;;;;;;;5043610;28;20021;-54
2023/06/13 08:38:05;;;;;;;5.38;1.40;;;;;;;;;;5043036;28;20114;-57
2023/06/13 08:40:31;;;;;;;4.15;1.38;;;;;;;;;;5037448;28;20429;-55
2023/06/13 08:42:57;;;;;;;2.08;1.38;;;;;;;;;;5039005;28;20036;-57
2023/06/13 08:45:22;;;;;;;2.47;1.20;;;;;;;;;;5034591;28;20114;-54
2023/06/13 08:47:48;;;;;;;4.75;1.33;;;;;;;;;;5039683;28;20487;-53
2023/06/13 08:50:18;;;;;;;4.82;1.77;;;;;;;;;;5041377;28;20024;-55
2023/06/13 08:52:45;;;;;;;4.32;1.60;;;;;;;;;;5039637;28;20067;-57
2023/06/13 08:55:15;;;;;;;1.67;1.23;;;;;;;;;;5037906;28;20115;-57
2023/06/13 08:57:41;;;;;;;2.50;1.50;;;;;;;;;;5034938;28;20060;-56
2023/06/13 09:00:11;;;;;;;3.13;1.38;;;;;;;;;;5042274;28;20718;-56
2023/06/13 09:02:37;;;;;;;2.30;1.40;;;;;;;;;;5033808;28;20053;-57
2023/06/13 09:05:03;;;;;;;75.90;4.28;;;;;;;;;;5038594;28;20103;-56
2023/06/13 09:07:29;;;;;;;2.05;1.33;;;;;;;;;;5035628;28;20099;-55
2023/06/13 09:09:55;;;;;;;2.55;1.30;;;;;;;;;;5034219;28;20029;-51
2023/06/13 09:12:21;;;;;;;1.60;1.50;;;;;;;;;;5036273;28;20021;-55
2023/06/13 09:14:46;;;;;;;2.35;1.02;;;;;;;;;;5033737;28;20060;-53
2023/06/13 09:17:11;;;;;;;1.73;1.30;;;;;;;;;;5034118;28;20618;-56
2023/06/13 09:19:37;;;;;;;1.10;0.98;;;;;;;;;;5038509;28;20394;-55
2023/06/13 09:22:02;;;;;;;2.20;1.10;;;;;;;;;;5038041;28;20032;-56
2023/06/13 09:24:27;;;;;;;7.18;1.65;;;;;;;;;;5004780;28;20238;-57
2023/06/13 09:26:53;;;;;;;4.78;1.40;;;;;;;;;;5037956;28;20033;-55
2023/06/13 09:29:18;;;;;;;1.20;1.10;;;;;;;;;;5032815;28;20119;-58
2023/06/13 09:31:43;;;;;;;1.43;0.90;;;;;;;;;;5041666;28;20648;-56
2023/06/13 09:34:13;;;;;;;2.58;1.20;;;;;;;;;;5039413;28;20285;-54
2023/06/13 09:36:38;;;;;;;3.45;1.40;;;;;;;;;;5038435;28;20391;-59
2023/06/13 09:39:04;;;;;;;5.53;1.48;;;;;;;;;;5039129;28;20029;-56
2023/06/13 09:41:31;;;;;;;2.38;1.20;;;;;;;;;;5039396;28;20027;-57
2023/06/13 09:44:01;;;;;;;1.35;1.10;;;;;;;;;;5036644;28;20029;-55
2023/06/13 09:46:27;;;;;;;5.47;1.30;;;;;;;;;;5036763;28;20029;-56
2023/06/13 09:48:52;;;;;;;2.47;1.60;;;;;;;;;;4999999;28;20045;-60
2023/06/13 09:51:18;;;;;;;1.70;1.30;;;;;;;;;;5037228;28;20046;-56
2023/06/13 09:53:43;;;;;;;5.27;1.77;;;;;;;;;;5039944;28;20281;-57
2023/06/13 09:56:11;;;;;;;1.33;1.08;;;;;;;;;;5039131;28;20340;-54
2023/06/13 09:58:37;;;;;;;4.13;1.30;;;;;;;;;;5036765;28;20344;-54
2023/06/13 10:01:03;;;;;;;1.50;1.20;;;;;;;;;;5032708;28;20025;-56
2023/06/13 10:03:29;;;;;;;3.20;1.15;;;;;;;;;;5035089;28;20754;-53
2023/06/13 10:05:55;;;;;;;1.92;1.40;;;;;;;;;;5032453;28;20083;-56
2023/06/13 10:08:20;;;;;;;1.67;1.10;;;;;;;;;;5032372;28;20025;-53
2023/06/13 10:10:46;;;;;;;6.22;1.42;;;;;;;;;;5029818;28;20064;-55
2023/06/13 10:13:15;;;;;;;2.67;1.02;;;;;;;;;;5030696;28;20017;-56
2023/06/13 10:15:43;;;;;;;1.75;1.20;;;;;;;;;;5037040;28;20033;-59
2023/06/13 10:18:11;;;;;;;1.80;1.00;;;;;;;;;;5033815;28;20119;-56
2023/06/13 10:20:38;;;;;;;3.13;1.27;;;;;;;;;;5033180;28;20141;-54
2023/06/13 10:23:03;;;;;;;4.55;1.45;;;;;;;;;;5030871;28;20096;-54
2023/06/13 10:25:29;;;;;;;1.98;1.27;;;;;;;;;;5031588;28;20116;-59
2023/06/13 10:27:58;;;;;;;1.33;1.10;;;;;;;;;;5036616;28;20061;-56
2023/06/13 10:30:24;;;;;;;2.25;1.13;;;;;;;;;;5035541;28;20108;-53
2023/06/13 10:33:08;;;;;;;1.83;1.10;;;;;;;;;;5039447;28;20496;-54
2023/06/13 10:35:39;;;;;;;2.05;1.10;;;;;;;;;;5037237;28;20029;-57
2023/06/13 10:38:26;;;;;;;1.70;1.13;;;;;;;;;;5036348;28;20052;-53
2023/06/13 10:40:51;;;;;;;3.88;1.23;;;;;;;;;;4970469;28;20077;-55
2023/06/13 10:43:19;;;;;;;3.37;1.00;;;;;;;;;;4973735;28;20853;-54
2023/06/13 10:45:46;;;;;;;4.20;1.48;;;;;;;;;;4976692;28;20158;-59
2023/06/13 10:48:12;;;;;;;2.10;1.10;;;;;;;;;;4977740;28;20033;-54
2023/06/13 10:50:38;;;;;;;1.30;0.95;;;;;;;;;;4977172;28;20213;-55
2023/06/13 10:53:03;;;;;;;3.35;1.23;;;;;;;;;;4972084;28;20438;-55
2023/06/13 10:55:31;;;;;;;1.53;1.23;;;;;;;;;;4973543;28;20027;-56
2023/06/13 10:57:57;;;;;;;3.60;2.08;;;;;;;;;;4974592;28;20058;-53
2023/06/13 11:00:25;;;;;;;2.55;1.27;;;;;;;;;;4974461;28;20512;-54
2023/06/13 11:02:57;;;;;;;1.80;1.20;;;;;;;;;;4972189;28;20054;-55
2023/06/13 11:05:22;;;;;;;1.23;1.13;;;;;;;;;;4974510;28;20484;-53
2023/06/13 11:07:47;;;;;;;3.95;1.42;;;;;;;;;;4978767;28;20406;-58
2023/06/13 11:10:14;;;;;;;6.57;1.10;;;;;;;;;;4961022;28;20054;-54
2023/06/13 11:12:40;;;;;;;2.00;1.48;;;;;;;;;;4973144;28;20268;-55
2023/06/13 11:15:18;;;;;;;1.17;1.00;;;;;;;;;;4977474;28;20034;-52
2023/06/13 11:18:00;;;;;;;2.08;1.25;;;;;;;;;;5002522;28;20029;-55
2023/06/13 11:20:25;;;;;;;4.78;1.42;;;;;;;;;;5045597;28;20033;-56
2023/06/13 11:22:50;;;;;;;2.27;1.40;;;;;;;;;;5027399;28;20086;-55
2023/06/13 11:25:16;;;;;;;2.30;1.40;;;;;;;;;;5030334;28;20452;-56
2023/06/13 11:27:41;;;;;;;2.58;1.35;;;;;;;;;;5040728;28;20056;-57
2023/06/13 11:30:07;;;;;;;4.50;1.53;;;;;;;;;;5037674;28;20026;-55
2023/06/13 11:32:34;;;;;;;3.55;1.50;;;;;;;;;;5040254;28;20021;-58
2023/06/13 11:35:01;;;;;;;5.57;1.52;;;;;;;;;;5043979;28;20033;-55
2023/06/13 11:37:44;;;;;;;8.20;1.70;;;;;;;;;;5043768;28;20074;-53
2023/06/13 11:40:11;;;;;;;1.75;1.48;;;;;;;;;;5044306;28;20040;-56
2023/06/13 11:42:37;;;;;;;4.57;2.00;;;;;;;;;;5034729;28;20027;-55
2023/06/13 11:45:02;;;;;;;2.50;1.70;;;;;;;;;;5015959;28;20039;-59
2023/06/13 11:47:27;;;;;;;73.22;4.65;;;;;;;;;;5034370;28;20036;-57
2023/06/13 11:49:53;;;;;;;102.35;7.32;;;;;;;;;;5040044;28;20021;-54
2023/06/13 11:52:19;;;;;;;12.18;1.80;;;;;;;;;;5035139;28;20017;-54
2023/06/13 11:54:47;;;;;;;7.13;2.03;;;;;;;;;;5039349;28;20112;-55
2023/06/13 11:57:15;;;;;;;26.98;2.80;;;;;;;;;;5039803;28;20013;-55
2023/06/13 11:59:40;;;;;;;13.93;2.30;;;;;;;;;;5041117;28;20025;-59
2023/06/13 12:02:06;;;;;;;16.30;1.98;;;;;;;;;;5036097;28;20024;-55
2023/06/13 12:04:31;;;;;;;4.25;1.65;;;;;;;;;;5041009;28;20033;-58
2023/06/13 12:06:57;;;;;;;7.65;1.58;;;;;;;;;;5041314;28;20033;-55
2023/06/13 12:09:23;;;;;;;7.05;1.95;;;;;;;;;;5016695;28;20041;-57
2023/06/13 12:11:49;;;;;;;18.85;2.25;;;;;;;;;;5038203;28;20017;-55
2023/06/13 12:14:19;;;;;;;4.45;1.42;;;;;;;;;;5038653;28;20032;-57
2023/06/13 12:16:44;;;;;;;4.88;1.50;;;;;;;;;;5043615;28;20024;-55
2023/06/13 12:19:09;;;;;;;10.10;1.83;;;;;;;;;;5045885;28;20029;-50
2023/06/13 12:21:36;;;;;;;8.15;1.88;;;;;;;;;;5050711;28;20373;-58
2023/06/13 12:24:06;;;;;;;2.28;1.40;;;;;;;;;;5007763;28;20029;-59
2023/06/13 12:26:33;;;;;;;9.68;1.92;;;;;;;;;;5049074;28;20304;-56
2023/06/13 12:28:59;;;;;;;1.63;0.98;;;;;;;;;;5062885;28;20372;-55
2023/06/13 12:31:33;;;;;;;5.45;1.50;;;;;;;;;;5053887;28;20182;-54
2023/06/13 12:34:08;;;;;;;1.67;1.30;;;;;;;;;;5035813;28;20035;-55
2023/06/13 12:36:40;;;;;;;3.28;1.40;;;;;;;;;;5035366;28;20131;-55
2023/06/13 12:39:06;;;;;;;5.32;1.40;;;;;;;;;;5034316;28;20022;-58
2023/06/13 12:41:31;;;;;;;7.10;1.60;;;;;;;;;;5037638;28;20043;-56
2023/06/13 12:43:58;;;;;;;3.83;1.50;;;;;;;;;;5040943;28;20556;-58
2023/06/13 12:46:23;;;;;;;5.93;1.75;;;;;;;;;;5043148;28;20031;-57
2023/06/13 12:48:49;;;;;;;5.77;1.60;;;;;;;;;;5034179;28;20033;-54
2023/06/13 12:51:28;;;;;;;5.35;1.70;;;;;;;;;;5036040;28;20361;-55
2023/06/13 12:53:56;;;;;;;7.27;1.60;;;;;;;;;;5034769;28;20124;-53
2023/06/13 12:56:21;;;;;;;2.23;1.47;;;;;;;;;;5039959;28;20027;-57
2023/06/13 12:58:56;;;;;;;2.27;1.37;;;;;;;;;;5037603;28;20274;-56
2023/06/13 13:01:21;;;;;;;7.05;1.30;;;;;;;;;;5041152;28;20250;-56
2023/06/13 13:03:47;;;;;;;2.97;1.67;;;;;;;;;;5049545;28;20545;-55
2023/06/13 13:06:12;;;;;;;4.60;1.37;;;;;;;;;;5035383;28;20254;-55
2023/06/13 13:08:38;;;;;;;2.00;1.60;;;;;;;;;;5026214;28;20301;-53
2023/06/13 13:11:03;;;;;;;2.78;1.60;;;;;;;;;;5038074;28;20041;-56
2023/06/13 13:13:29;;;;;;;1.48;1.33;;;;;;;;;;5046398;28;20021;-57
2023/06/13 13:15:54;;;;;;;2.78;1.55;;;;;;;;;;5039267;28;20283;-58
2023/06/13 13:18:20;;;;;;;3.55;1.23;;;;;;;;;;5042971;28;20432;-58
2023/06/13 13:20:45;;;;;;;5.40;1.77;;;;;;;;;;5037587;28;20099;-54
2023/06/13 13:23:10;;;;;;;2.05;1.30;;;;;;;;;;5034396;28;20445;-53
2023/06/13 13:25:36;;;;;;;3.10;1.30;;;;;;;;;;5022637;28;20112;-53
2023/06/13 13:28:02;;;;;;;4.25;1.63;;;;;;;;;;5055005;28;20125;-56
2023/06/13 13:30:28;;;;;;;2.30;1.40;;;;;;;;;;5055378;28;20046;-55
2023/06/13 13:32:54;;;;;;;1.92;1.25;;;;;;;;;;5038780;28;20029;-55
2023/06/13 13:35:20;;;;;;;1.77;1.20;;;;;;;;;;5038606;28;20567;-56
2023/06/13 13:37:45;;;;;;;2.55;1.63;;;;;;;;;;5043228;28;20021;-58
2023/06/13 13:40:11;;;;;;;19.85;2.50;;;;;;;;;;5037334;28;20606;-57
2023/06/13 13:42:37;;;;;;;4.82;1.40;;;;;;;;;;5036443;28;20021;-52
2023/06/13 13:45:03;;;;;;;5.72;1.65;;;;;;;;;;4984018;28;20068;-58
2023/06/13 13:47:28;;;;;;;1.45;1.17;;;;;;;;;;5040845;28;20114;-54
2023/06/13 13:49:53;;;;;;;4.72;1.17;;;;;;;;;;5040784;28;20021;-55
2023/06/13 13:52:19;;;;;;;2.33;1.47;;;;;;;;;;5039523;28;20029;-55
2023/06/13 13:54:44;;;;;;;5.25;1.33;;;;;;;;;;5037926;28;20273;-53
2023/06/13 13:57:10;;;;;;;1.70;1.25;;;;;;;;;;5039170;28;20158;-54
2023/06/13 13:59:35;;;;;;;2.65;1.50;;;;;;;;;;5038832;28;20104;-56
2023/06/13 14:02:01;;;;;;;3.33;1.40;;;;;;;;;;5036445;28;20158;-55
2023/06/13 14:04:28;;;;;;;1.25;1.15;;;;;;;;;;5033842;28;20274;-53
2023/06/13 14:06:53;;;;;;;2.70;1.30;;;;;;;;;;5034150;28;20804;-56
2023/06/13 14:09:18;;;;;;;1.80;1.33;;;;;;;;;;5038928;28;20359;-56
2023/06/13 14:11:44;;;;;;;8.75;1.83;;;;;;;;;;5041094;28;20329;-53
2023/06/13 14:14:09;;;;;;;7.85;1.60;;;;;;;;;;5038623;28;20089;-55
2023/06/13 14:16:34;;;;;;;6.60;1.30;;;;;;;;;;5043383;28;20260;-55
2023/06/13 14:19:00;;;;;;;4.85;1.60;;;;;;;;;;5038935;28;20532;-55
2023/06/13 14:21:25;;;;;;;6.32;1.40;;;;;;;;;;5035567;28;20048;-54
2023/06/13 14:23:52;;;;;;;5.18;2.40;;;;;;;;;;5036819;28;20067;-56
2023/06/13 14:26:17;;;;;;;3.28;1.38;;;;;;;;;;5040126;28;20051;-54
2023/06/13 14:28:42;;;;;;;1.75;1.50;;;;;;;;;;5033160;28;20477;-56
2023/06/13 14:31:08;;;;;;;3.75;1.30;;;;;;;;;;5037888;28;20454;-53
2023/06/13 14:33:34;;;;;;;2.47;1.40;;;;;;;;;;5011734;28;20147;-52
2023/06/13 14:35:59;;;;;;;3.17;1.27;;;;;;;;;;5036543;28;20880;-54
2023/06/13 14:38:25;;;;;;;3.15;1.30;;;;;;;;;;5031681;28;20580;-55